Time;durP1;ratioP1;P1;durP2;ratioP2;P2;SDS_P1;SDS_P2;PMS_P1;PMS_P2;Temp;Humidity;BMP_temperature;BMP_pressure;BME280_temperature;BME280_humidity;BME280_pressure;Samples;Min_cycle;Max_cycle;Signal;HPM_P1;HPM_P2
2023/12/01 00:00:32;;;;;;;21.08;8.20;;;0.70;99.90;;;;;;5014902;28;20025;-81
2023/12/01 00:02:58;;;;;;;20.83;7.53;;;0.70;99.90;;;;;;5014667;28;20030;-81
2023/12/01 00:05:24;;;;;;;21.02;7.68;;;0.60;99.90;;;;;;5014764;28;20030;-82
2023/12/01 00:07:49;;;;;;;23.27;7.50;;;0.60;99.90;;;;;;5016281;28;20030;-82
2023/12/01 00:10:15;;;;;;;20.65;7.13;;;0.40;99.90;;;;;;5015563;28;20038;-82
2023/12/01 00:12:42;;;;;;;27.20;8.23;;;0.40;99.90;;;;;;5011645;28;20046;-81
2023/12/01 00:15:07;;;;;;;26.48;6.63;;;0.30;99.90;;;;;;5015792;28;20025;-81
2023/12/01 00:17:33;;;;;;;25.15;7.43;;;0.30;99.90;;;;;;5014679;28;20022;-81
2023/12/01 00:19:59;;;;;;;21.55;8.02;;;0.30;99.90;;;;;;5015709;28;20539;-81
2023/12/01 00:22:25;;;;;;;19.80;6.45;;;0.30;99.90;;;;;;5015571;28;20472;-81
2023/12/01 00:24:50;;;;;;;22.02;6.63;;;0.40;99.90;;;;;;5015261;28;20061;-82
2023/12/01 00:27:16;;;;;;;20.35;6.80;;;0.60;99.90;;;;;;5014917;28;20041;-82
2023/12/01 00:29:43;;;;;;;15.02;5.60;;;0.60;99.90;;;;;;5013187;28;20569;-82
2023/12/01 00:32:08;;;;;;;15.05;6.00;;;0.50;99.90;;;;;;5015655;28;20510;-83
2023/12/01 00:34:34;;;;;;;18.63;5.97;;;0.50;99.90;;;;;;5013882;28;20022;-81
2023/12/01 00:37:00;;;;;;;11.57;5.95;;;0.60;99.90;;;;;;4995318;28;20023;-82
2023/12/01 00:39:26;;;;;;;20.58;6.82;;;0.60;99.90;;;;;;5013447;28;20044;-82
2023/12/01 00:41:52;;;;;;;16.65;5.82;;;0.70;99.90;;;;;;5025327;28;20029;-81
2023/12/01 00:44:17;;;;;;;17.98;6.32;;;0.80;99.90;;;;;;5012416;28;20025;-82
2023/12/01 00:46:43;;;;;;;23.42;5.50;;;0.80;99.90;;;;;;5014955;28;20069;-82
2023/12/01 00:49:11;;;;;;;22.88;8.15;;;0.70;99.90;;;;;;5015436;28;20510;-83
2023/12/01 00:51:37;;;;;;;14.80;6.13;;;0.50;99.90;;;;;;5013871;28;20078;-83
2023/12/01 00:54:02;;;;;;;22.52;6.93;;;0.50;99.90;;;;;;5014281;28;20026;-82
2023/12/01 00:56:28;;;;;;;17.65;7.25;;;0.60;99.90;;;;;;5008319;28;20049;-81
2023/12/01 00:58:57;;;;;;;18.90;6.63;;;0.60;99.90;;;;;;5005872;28;20029;-81
2023/12/01 01:01:22;;;;;;;;;;;0.70;99.90;;;;;;5015160;28;20044;-81
2023/12/01 01:03:48;;;;;;;25.27;7.55;;;0.70;99.90;;;;;;5014757;28;20423;-83
2023/12/01 01:06:13;;;;;;;24.77;7.50;;;0.50;99.90;;;;;;5015052;28;20484;-82
2023/12/01 01:08:39;;;;;;;37.45;7.32;;;0.30;99.90;;;;;;5014784;28;20026;-81
2023/12/01 01:11:05;;;;;;;19.45;7.53;;;0.40;99.90;;;;;;5014950;28;20515;-81
2023/12/01 01:13:32;;;;;;;25.52;7.90;;;0.50;99.90;;;;;;5014648;28;20507;-81
2023/12/01 01:15:57;;;;;;;36.00;9.68;;;0.40;99.90;;;;;;5013597;28;20496;-81
2023/12/01 01:18:23;;;;;;;24.13;8.32;;;0.40;99.90;;;;;;5014494;28;20018;-81
2023/12/01 01:20:49;;;;;;;29.25;9.82;;;0.50;99.90;;;;;;5014471;28;20092;-81
2023/12/01 01:23:15;;;;;;;36.28;9.90;;;0.40;99.90;;;;;;5014479;28;20026;-81
2023/12/01 01:25:41;;;;;;;30.17;8.85;;;0.50;99.90;;;;;;5013532;28;20026;-81
2023/12/01 01:28:07;;;;;;;33.78;9.98;;;0.60;99.90;;;;;;5013181;28;20052;-82
2023/12/01 01:30:33;;;;;;;30.33;8.82;;;0.60;99.90;;;;;;5013220;28;20033;-82
2023/12/01 01:32:59;;;;;;;27.48;9.07;;;0.70;99.90;;;;;;5012021;28;20025;-81
2023/12/01 01:35:25;;;;;;;32.17;8.95;;;0.50;99.90;;;;;;4995637;28;20078;-81
2023/12/01 01:37:50;;;;;;;25.70;9.35;;;0.40;99.90;;;;;;5012829;28;20101;-81
2023/12/01 01:40:16;;;;;;;25.15;8.90;;;0.40;99.90;;;;;;5014035;28;20485;-81
2023/12/01 01:42:43;;;;;;;32.05;9.38;;;0.40;99.90;;;;;;5013045;28;20026;-82
2023/12/01 01:45:09;;;;;;;22.55;8.52;;;0.50;99.90;;;;;;5012811;28;20038;-82
2023/12/01 01:47:36;;;;;;;35.92;10.50;;;0.60;99.90;;;;;;5013503;28;20018;-82
2023/12/01 01:50:03;;;;;;;29.08;9.50;;;0.70;99.90;;;;;;5012961;28;20022;-82
2023/12/01 01:52:29;;;;;;;25.27;8.77;;;0.70;99.90;;;;;;5012373;28;20025;-82
2023/12/01 01:54:56;;;;;;;24.67;8.07;;;0.80;99.90;;;;;;5012716;28;20029;-82
2023/12/01 01:57:22;;;;;;;31.50;9.18;;;0.90;99.90;;;;;;5012619;28;20030;-82
2023/12/01 01:59:48;;;;;;;30.35;10.73;;;0.90;99.90;;;;;;5014101;28;20095;-81
2023/12/01 02:02:14;;;;;;;27.77;9.80;;;0.90;99.90;;;;;;5005410;28;20018;-82
2023/12/01 02:04:40;;;;;;;24.88;8.68;;;0.90;99.90;;;;;;5012120;28;20436;-83
2023/12/01 02:07:08;;;;;;;26.13;8.07;;;0.80;99.90;;;;;;5011931;28;20034;-82
2023/12/01 02:09:34;;;;;;;22.23;8.07;;;0.80;99.90;;;;;;5013718;28;20022;-82
2023/12/01 02:11:59;;;;;;;23.85;7.57;;;0.70;99.90;;;;;;5013283;28;20041;-81
2023/12/01 02:14:25;;;;;;;24.83;8.32;;;0.60;99.90;;;;;;5012237;28;20095;-82
2023/12/01 02:16:51;;;;;;;17.67;6.32;;;0.60;99.90;;;;;;5012936;28;20053;-82
2023/12/01 02:19:18;;;;;;;20.83;6.72;;;0.70;99.90;;;;;;5010972;28;20543;-81
2023/12/01 02:21:48;;;;;;;17.30;6.90;;;0.80;99.90;;;;;;5011745;28;20029;-81
2023/12/01 02:24:14;;;;;;;20.17;6.63;;;0.80;99.90;;;;;;5012066;28;20022;-81
2023/12/01 02:26:40;;;;;;;17.25;6.75;;;0.90;99.90;;;;;;5012007;28;20033;-81
2023/12/01 02:29:06;;;;;;;24.42;6.80;;;0.90;99.90;;;;;;5012130;28;20061;-82
2023/12/01 02:31:32;;;;;;;24.45;8.93;;;1.00;99.90;;;;;;5013220;28;20431;-81
2023/12/01 02:33:58;;;;;;;20.73;7.15;;;1.00;99.90;;;;;;5013474;28;20505;-81
2023/12/01 02:36:24;;;;;;;22.52;7.55;;;1.10;99.90;;;;;;5011819;28;20179;-81
2023/12/01 02:38:50;;;;;;;21.42;7.38;;;1.10;99.90;;;;;;5011912;28;20026;-81
2023/12/01 02:41:17;;;;;;;23.13;8.25;;;1.10;99.90;;;;;;5013247;28;20387;-81
2023/12/01 02:43:45;;;;;;;24.80;8.13;;;1.10;99.90;;;;;;5013471;28;20026;-82
2023/12/01 02:46:12;;;;;;;20.63;6.95;;;1.10;99.90;;;;;;5013128;28;20026;-81
2023/12/01 02:48:39;;;;;;;20.13;7.18;;;1.20;99.90;;;;;;5012106;28;20164;-82
2023/12/01 02:51:05;;;;;;;23.95;7.57;;;1.10;99.90;;;;;;5013392;28;20543;-81
2023/12/01 02:53:31;;;;;;;23.67;7.63;;;1.00;99.90;;;;;;5013206;28;20057;-82
2023/12/01 02:55:57;;;;;;;20.42;7.10;;;1.00;99.90;;;;;;5012987;28;20022;-82
2023/12/01 02:58:24;;;;;;;17.02;6.55;;;1.00;99.90;;;;;;5012916;28;20030;-82
2023/12/01 03:00:50;;;;;;;24.35;8.07;;;1.10;99.90;;;;;;5011744;28;20049;-82
2023/12/01 03:03:15;;;;;;;23.77;7.72;;;1.10;99.90;;;;;;5013060;28;20068;-82
2023/12/01 03:05:41;;;;;;;23.02;7.43;;;1.10;99.90;;;;;;5012976;28;20484;-81
2023/12/01 03:08:07;;;;;;;22.08;6.65;;;1.10;99.90;;;;;;5013078;28;20136;-82
2023/12/01 03:10:34;;;;;;;21.98;7.05;;;1.10;99.90;;;;;;5012433;28;20022;-81
2023/12/01 03:13:00;;;;;;;17.48;6.70;;;1.10;99.90;;;;;;5008434;28;20108;-82
2023/12/01 03:15:25;;;;;;;22.60;7.90;;;1.10;99.90;;;;;;5011951;28;20030;-82
2023/12/01 03:17:51;;;;;;;21.52;7.28;;;1.10;99.90;;;;;;5012905;28;20396;-82
2023/12/01 03:20:17;;;;;;;19.33;7.13;;;1.20;99.90;;;;;;5011390;28;20025;-81
2023/12/01 03:22:44;;;;;;;27.35;8.25;;;1.20;99.90;;;;;;5012952;28;20083;-82
2023/12/01 03:25:11;;;;;;;28.80;7.30;;;1.20;99.90;;;;;;5012736;28;20026;-81
2023/12/01 03:27:45;;;;;;;20.40;7.07;;;1.20;99.90;;;;;;5011362;28;20152;-81
2023/12/01 03:30:15;;;;;;;19.88;6.63;;;1.20;99.90;;;;;;5010871;28;20041;-81
2023/12/01 03:32:45;;;;;;;21.10;6.70;;;1.30;99.90;;;;;;5011241;28;20471;-82
2023/12/01 03:35:21;;;;;;;19.52;6.25;;;1.20;99.90;;;;;;5010831;28;20026;-82
2023/12/01 03:37:48;;;;;;;24.00;7.10;;;1.10;99.90;;;;;;5010441;28;20022;-82
2023/12/01 03:40:14;;;;;;;26.42;7.50;;;1.00;99.90;;;;;;5011098;28;20054;-82
2023/12/01 03:42:44;;;;;;;19.13;6.05;;;1.00;99.90;;;;;;5011856;28;20026;-82
2023/12/01 03:45:13;;;;;;;22.33;7.00;;;1.00;99.90;;;;;;5012448;28;20026;-81
2023/12/01 03:47:40;;;;;;;28.35;8.27;;;1.00;99.90;;;;;;5011345;28;20037;-82
2023/12/01 03:50:11;;;;;;;36.25;9.25;;;1.00;99.90;;;;;;5010183;28;20042;-81
2023/12/01 03:52:44;;;;;;;28.48;8.18;;;1.00;99.90;;;;;;5012017;28;20472;-83
2023/12/01 03:55:10;;;;;;;25.52;7.75;;;1.00;99.90;;;;;;5011697;28;20022;-81
2023/12/01 03:57:41;;;;;;;24.95;8.63;;;1.00;99.90;;;;;;5011674;28;20395;-82
2023/12/01 04:00:09;;;;;;;28.70;7.93;;;1.10;99.90;;;;;;5001517;28;20037;-81
2023/12/01 04:02:40;;;;;;;20.13;8.80;;;1.10;99.90;;;;;;5012207;28;20480;-81
2023/12/01 04:05:08;;;;;;;27.45;8.55;;;1.20;99.90;;;;;;5011260;28;20484;-82
2023/12/01 04:07:34;;;;;;;34.27;8.80;;;1.20;99.90;;;;;;5012748;28;20026;-82
2023/12/01 04:10:00;;;;;;;29.65;8.93;;;1.20;99.90;;;;;;5010829;28;20030;-81
2023/12/01 04:12:26;;;;;;;22.13;7.32;;;1.20;99.90;;;;;;5015284;28;20044;-81
2023/12/01 04:14:51;;;;;;;21.90;7.53;;;1.10;99.90;;;;;;5015988;28;20373;-82
2023/12/01 04:17:18;;;;;;;25.10;8.73;;;1.10;99.90;;;;;;5015969;28;20034;-82
2023/12/01 04:19:43;;;;;;;40.03;9.43;;;1.10;99.90;;;;;;5014643;28;20061;-81
2023/12/01 04:22:09;;;;;;;21.85;8.30;;;1.10;99.90;;;;;;5014626;28;20069;-82
2023/12/01 04:24:35;;;;;;;29.45;8.75;;;1.20;99.90;;;;;;5015956;28;20040;-82
2023/12/01 04:27:02;;;;;;;28.08;8.02;;;1.20;99.90;;;;;;5015485;28;20515;-81
2023/12/01 04:29:29;;;;;;;25.33;6.93;;;1.20;99.90;;;;;;5008906;28;20034;-81
2023/12/01 04:31:57;;;;;;;33.65;8.57;;;1.30;99.90;;;;;;5006745;28;20026;-81
2023/12/01 04:34:22;;;;;;;37.10;10.32;;;1.30;99.90;;;;;;5014471;28;20018;-82
2023/12/01 04:36:52;;;;;;;34.90;9.95;;;1.30;99.90;;;;;;5014072;28;20022;-82
2023/12/01 04:39:18;;;;;;;31.10;9.20;;;1.30;99.90;;;;;;5015349;28;20030;-81
2023/12/01 04:41:43;;;;;;;30.67;8.85;;;1.30;99.90;;;;;;5014258;28;20534;-81
2023/12/01 04:44:09;;;;;;;25.52;8.75;;;1.30;99.90;;;;;;5014295;28;20392;-80
2023/12/01 04:46:35;;;;;;;30.67;8.30;;;1.30;99.90;;;;;;5015180;28;20026;-83
2023/12/01 04:49:03;;;;;;;34.47;9.90;;;1.40;99.90;;;;;;5015534;28;20014;-82
2023/12/01 04:51:28;;;;;;;28.92;9.15;;;1.40;99.90;;;;;;5017400;28;20516;-81
2023/12/01 04:53:54;;;;;;;30.63;10.60;;;1.30;99.90;;;;;;5014966;28;20103;-82
2023/12/01 04:56:20;;;;;;;23.52;8.55;;;1.30;99.90;;;;;;5014845;28;20102;-82
2023/12/01 04:58:45;;;;;;;34.15;9.23;;;1.40;99.90;;;;;;5014072;28;20080;-82
2023/12/01 05:01:11;;;;;;;33.08;9.05;;;1.50;99.90;;;;;;5013722;28;20022;-82
2023/12/01 05:03:37;;;;;;;37.55;9.40;;;1.50;99.90;;;;;;5013487;28;20040;-82
2023/12/01 05:06:03;;;;;;;25.52;7.63;;;1.60;99.90;;;;;;5013638;28;20052;-82
2023/12/01 05:08:29;;;;;;;27.45;9.20;;;1.60;99.90;;;;;;5013747;28;20079;-83
2023/12/01 05:10:56;;;;;;;30.05;8.77;;;1.60;99.90;;;;;;5014613;28;20038;-81
2023/12/01 05:13:22;;;;;;;;;;;1.60;99.90;;;;;;5013962;28;20085;-80
2023/12/01 05:15:48;;;;;;;27.35;8.82;;;1.60;99.90;;;;;;5014362;28;19909;-81
2023/12/01 05:18:14;;;;;;;30.58;9.52;;;1.60;99.90;;;;;;5013665;28;20503;-83
2023/12/01 05:20:40;;;;;;;29.48;9.05;;;1.60;99.90;;;;;;5014900;28;20033;-81
2023/12/01 05:23:10;;;;;;;28.65;8.80;;;1.60;99.90;;;;;;5013342;28;20080;-81
2023/12/01 05:25:41;;;;;;;29.98;8.30;;;1.60;99.90;;;;;;5012020;28;20032;-83
2023/12/01 05:28:07;;;;;;;30.70;9.57;;;1.50;99.90;;;;;;5010070;28;20026;-83
2023/12/01 05:30:38;;;;;;;32.70;10.73;;;1.50;99.90;;;;;;5013021;28;20030;-83
2023/12/01 05:33:04;;;;;;;26.10;9.00;;;1.60;99.90;;;;;;5010827;28;20032;-83
2023/12/01 05:35:31;;;;;;;23.45;8.30;;;1.80;99.90;;;;;;5014333;28;20059;-81
2023/12/01 05:37:58;;;;;;;28.15;10.20;;;1.80;99.90;;;;;;5013564;28;20113;-81
2023/12/01 05:40:36;;;;;;;31.48;9.02;;;1.80;99.90;;;;;;5011385;28;20026;-81
2023/12/01 05:43:04;;;;;;;26.60;8.70;;;1.80;99.90;;;;;;5014555;28;20432;-81
2023/12/01 05:45:35;;;;;;;29.23;9.85;;;1.80;99.90;;;;;;5014184;28;20022;-81
2023/12/01 05:48:02;;;;;;;22.83;9.70;;;1.90;99.90;;;;;;5012617;28;20116;-81
2023/12/01 05:50:30;;;;;;;34.08;10.48;;;1.80;99.90;;;;;;5013001;28;20049;-82
2023/12/01 05:52:58;;;;;;;19.10;7.85;;;1.80;99.90;;;;;;5014197;28;20022;-82
2023/12/01 05:55:28;;;;;;;33.53;10.73;;;1.80;99.90;;;;;;5013739;28;20026;-81
2023/12/01 05:57:55;;;;;;;27.52;8.70;;;1.80;99.90;;;;;;5012484;28;20022;-82
2023/12/01 06:00:23;;;;;;;30.98;9.88;;;1.80;99.90;;;;;;5013604;28;20033;-81
2023/12/01 06:02:51;;;;;;;27.73;8.77;;;1.80;99.90;;;;;;5011717;28;20026;-82
2023/12/01 06:05:19;;;;;;;24.83;8.30;;;1.80;99.90;;;;;;5014054;28;20026;-82
2023/12/01 06:07:49;;;;;;;39.87;10.97;;;1.80;99.90;;;;;;5012793;28;20040;-81
2023/12/01 06:10:16;;;;;;;28.80;9.77;;;1.90;99.90;;;;;;5012092;28;20289;-82
2023/12/01 06:12:42;;;;;;;23.38;8.50;;;1.90;99.90;;;;;;5012478;28;20567;-82
2023/12/01 06:15:13;;;;;;;27.77;10.05;;;1.90;99.90;;;;;;5012559;28;20022;-81
2023/12/01 06:17:39;;;;;;;40.25;9.60;;;1.90;99.90;;;;;;5013685;28;20018;-83
2023/12/01 06:20:18;;;;;;;30.33;8.98;;;1.90;99.90;;;;;;5012115;28;20157;-83
2023/12/01 06:22:58;;;;;;;28.85;8.43;;;2.00;99.90;;;;;;5013739;28;20041;-83
2023/12/01 06:25:30;;;;;;;26.35;9.48;;;2.00;99.90;;;;;;5012388;28;20037;-83
2023/12/01 06:27:57;;;;;;;35.53;10.45;;;2.10;99.90;;;;;;5013556;28;20036;-83
2023/12/01 06:30:28;;;;;;;34.92;9.57;;;2.10;99.90;;;;;;5011895;28;20445;-81
2023/12/01 06:32:53;;;;;;;32.28;8.90;;;2.10;99.90;;;;;;5012735;28;20515;-82
2023/12/01 06:35:21;;;;;;;38.10;9.00;;;2.00;99.90;;;;;;5011766;28;20018;-82
2023/12/01 06:37:47;;;;;;;27.65;10.40;;;2.00;99.90;;;;;;5012193;28;20026;-81
2023/12/01 06:40:18;;;;;;;27.65;10.98;;;2.00;99.90;;;;;;5011711;28;20033;-82
2023/12/01 06:42:51;;;;;;;33.88;9.73;;;2.00;99.90;;;;;;5013094;28;20029;-82
2023/12/01 06:45:26;;;;;;;25.65;8.00;;;2.00;99.90;;;;;;5012116;28;20389;-82
2023/12/01 06:47:53;;;;;;;31.55;8.80;;;2.00;99.90;;;;;;5011949;28;20496;-81
2023/12/01 06:50:21;;;;;;;21.40;7.47;;;2.10;99.90;;;;;;5012896;28;20026;-83
2023/12/01 06:52:49;;;;;;;24.27;8.63;;;2.10;99.90;;;;;;5010535;28;20538;-83
2023/12/01 06:55:15;;;;;;;28.45;9.80;;;2.10;99.90;;;;;;4994205;28;20092;-82
2023/12/01 06:57:43;;;;;;;25.52;8.95;;;2.10;99.90;;;;;;5013322;28;20037;-82
2023/12/01 07:00:21;;;;;;;24.48;8.15;;;2.10;99.90;;;;;;5013093;28;20034;-82
2023/12/01 07:02:48;;;;;;;31.40;8.73;;;2.00;99.90;;;;;;5011864;28;20030;-82
2023/12/01 07:05:19;;;;;;;15.75;6.38;;;2.00;99.90;;;;;;5011488;28;20100;-82
2023/12/01 07:07:47;;;;;;;30.15;7.95;;;2.00;99.90;;;;;;5011731;28;20492;-81
2023/12/01 07:10:13;;;;;;;24.65;8.10;;;2.00;99.90;;;;;;5010227;28;20534;-82
2023/12/01 07:12:39;;;;;;;31.40;8.57;;;2.00;99.90;;;;;;5012721;28;20046;-82
2023/12/01 07:15:11;;;;;;;38.20;10.77;;;1.90;99.90;;;;;;5023540;28;20399;-81
2023/12/01 07:17:38;;;;;;;25.85;8.85;;;1.80;99.90;;;;;;4995859;28;20032;-82
2023/12/01 07:20:14;;;;;;;31.13;9.20;;;1.90;99.90;;;;;;5011644;28;20025;-82
2023/12/01 07:22:43;;;;;;;27.20;8.90;;;2.00;99.90;;;;;;5012922;28;20037;-83
2023/12/01 07:25:10;;;;;;;25.83;8.88;;;2.00;99.90;;;;;;5012569;28;20026;-82
2023/12/01 07:27:37;;;;;;;29.23;8.90;;;2.00;99.90;;;;;;5010460;28;20041;-82
2023/12/01 07:30:04;;;;;;;31.17;9.00;;;2.00;99.90;;;;;;5011577;28;20079;-81
2023/12/01 07:32:49;;;;;;;27.65;9.10;;;2.00;99.90;;;;;;5010515;28;20086;-81
2023/12/01 07:35:15;;;;;;;24.58;8.65;;;2.00;99.90;;;;;;5011208;28;20033;-82
2023/12/01 07:37:42;;;;;;;32.67;8.90;;;2.10;99.90;;;;;;5011504;28;20026;-81
2023/12/01 07:40:13;;;;;;;26.30;9.55;;;2.00;99.90;;;;;;5011265;28;20038;-82
2023/12/01 07:42:41;;;;;;;25.45;7.70;;;2.00;99.90;;;;;;5010731;28;20049;-82
2023/12/01 07:45:08;;;;;;;34.08;8.65;;;2.10;99.90;;;;;;5012341;28;20073;-81
2023/12/01 07:47:34;;;;;;;26.38;9.50;;;2.30;99.90;;;;;;5015012;28;20527;-81
2023/12/01 07:50:01;;;;;;;29.50;10.05;;;2.20;99.90;;;;;;5015255;28;20053;-81
2023/12/01 07:52:26;;;;;;;24.27;8.82;;;2.10;99.90;;;;;;5014450;28;20480;-82
2023/12/01 07:54:52;;;;;;;29.10;8.38;;;2.10;99.90;;;;;;5013491;28;20021;-82
2023/12/01 07:57:18;;;;;;;27.65;7.75;;;2.20;99.90;;;;;;4999234;28;20109;-83
2023/12/01 07:59:43;;;;;;;33.67;8.75;;;2.10;99.90;;;;;;5014030;28;20112;-82
2023/12/01 08:02:09;;;;;;;38.45;9.70;;;2.10;99.90;;;;;;5014963;28;20026;-82
2023/12/01 08:04:35;;;;;;;24.67;8.20;;;2.10;99.90;;;;;;5014898;28;20068;-82
2023/12/01 08:07:01;;;;;;;24.70;8.15;;;2.20;99.90;;;;;;5014716;28;20399;-82
2023/12/01 08:09:31;;;;;;;27.25;8.70;;;2.30;99.90;;;;;;5030759;28;20088;-82
2023/12/01 08:11:58;;;;;;;26.17;8.27;;;2.30;99.90;;;;;;5015410;28;20471;-82
2023/12/01 08:14:25;;;;;;;24.88;9.07;;;2.30;99.90;;;;;;5014395;28;20038;-82
2023/12/01 08:16:51;;;;;;;28.08;8.20;;;2.30;99.90;;;;;;5013915;28;20060;-82
2023/12/01 08:19:17;;;;;;;24.58;7.50;;;2.20;99.90;;;;;;5014051;28;20052;-82
2023/12/01 08:21:44;;;;;;;30.67;7.70;;;2.10;99.90;;;;;;5015675;28;20029;-82
2023/12/01 08:24:10;;;;;;;21.55;6.60;;;2.10;99.90;;;;;;5015245;28;20058;-82
2023/12/01 08:26:37;;;;;;;22.73;8.57;;;2.10;99.90;;;;;;5014144;28;20026;-82
2023/12/01 08:29:03;;;;;;;27.02;7.20;;;2.20;99.90;;;;;;5014935;28;20049;-81
2023/12/01 08:31:30;;;;;;;26.38;8.52;;;2.20;99.90;;;;;;5014283;28;20029;-81
2023/12/01 08:33:56;;;;;;;25.98;7.93;;;2.30;99.90;;;;;;5013477;28;20438;-81
2023/12/01 08:36:22;;;;;;;23.42;7.72;;;2.30;99.90;;;;;;5007748;28;20034;-83
2023/12/01 08:38:48;;;;;;;15.98;6.25;;;2.40;99.90;;;;;;5007436;28;20041;-83
2023/12/01 08:41:14;;;;;;;24.65;6.25;;;2.30;99.90;;;;;;5015612;28;20026;-83
2023/12/01 08:43:40;;;;;;;23.10;7.78;;;2.20;99.90;;;;;;5012840;28;20033;-83
2023/12/01 08:46:06;;;;;;;15.80;5.68;;;2.30;99.90;;;;;;5014779;28;20033;-83
2023/12/01 08:48:31;;;;;;;20.80;6.75;;;2.30;99.90;;;;;;5012955;28;20028;-82
2023/12/01 08:50:57;;;;;;;18.60;6.68;;;2.30;99.90;;;;;;5013313;28;20037;-83
2023/12/01 08:53:23;;;;;;;26.77;8.40;;;2.20;99.90;;;;;;5013366;28;20575;-82
2023/12/01 08:55:49;;;;;;;17.05;6.20;;;2.20;99.90;;;;;;5014906;28;20026;-82
2023/12/01 08:58:17;;;;;;;28.05;7.95;;;2.20;99.90;;;;;;5013542;28;20419;-83
2023/12/01 09:00:43;;;;;;;23.58;6.55;;;2.10;99.90;;;;;;5011955;28;20480;-83
2023/12/01 09:03:09;;;;;;;27.25;7.57;;;2.00;99.90;;;;;;5008665;28;20088;-81
2023/12/01 09:05:34;;;;;;;23.55;6.30;;;2.00;99.90;;;;;;5012674;28;20411;-82
2023/12/01 09:08:04;;;;;;;21.90;6.72;;;2.00;99.90;;;;;;5013062;28;20041;-82
2023/12/01 09:10:30;;;;;;;17.23;6.13;;;2.00;99.90;;;;;;5013763;28;20114;-82
2023/12/01 09:12:55;;;;;;;14.45;5.97;;;2.10;99.90;;;;;;5012887;28;20479;-82
2023/12/01 09:15:21;;;;;;;19.13;5.85;;;2.30;99.90;;;;;;5011647;28;20018;-83
2023/12/01 09:17:47;;;;;;;22.10;7.50;;;2.30;99.90;;;;;;5013414;28;20030;-82
2023/12/01 09:20:12;;;;;;;24.40;6.53;;;2.30;99.90;;;;;;5014012;28;20492;-82
2023/12/01 09:22:38;;;;;;;25.23;6.70;;;2.20;99.90;;;;;;5012815;28;20388;-82
2023/12/01 09:25:04;;;;;;;20.75;5.57;;;2.10;99.90;;;;;;5012702;28;20033;-82
2023/12/01 09:27:30;;;;;;;21.75;7.20;;;2.10;99.90;;;;;;5029466;28;20033;-82
2023/12/01 09:29:56;;;;;;;18.33;5.82;;;2.10;99.90;;;;;;5010698;28;20037;-82
2023/12/01 09:32:22;;;;;;;21.60;6.07;;;2.00;99.90;;;;;;5011581;28;20068;-82
2023/12/01 09:34:47;;;;;;;18.17;5.63;;;1.90;99.90;;;;;;5012994;28;20030;-84
2023/12/01 09:37:14;;;;;;;21.38;6.40;;;1.90;99.90;;;;;;5007238;28;20113;-83
2023/12/01 09:39:40;;;;;;;25.90;6.22;;;2.00;99.90;;;;;;5009831;28;20492;-83
2023/12/01 09:42:08;;;;;;;21.48;6.68;;;2.00;99.90;;;;;;5012875;28;20044;-83
2023/12/01 09:44:35;;;;;;;18.48;5.63;;;1.80;99.90;;;;;;5014169;28;20030;-84
2023/12/01 09:47:02;;;;;;;16.05;5.60;;;1.90;99.90;;;;;;5010452;28;20065;-85
2023/12/01 09:49:33;;;;;;;19.02;6.38;;;1.90;99.90;;;;;;5014275;28;20034;-83
2023/12/01 09:52:00;;;;;;;22.27;6.15;;;2.10;99.90;;;;;;4997480;28;20081;-84
2023/12/01 09:54:30;;;;;;;19.15;5.65;;;2.10;99.90;;;;;;4994567;28;20548;-83
2023/12/01 09:56:58;;;;;;;18.33;5.95;;;2.00;99.90;;;;;;4993189;28;20370;-83
2023/12/01 09:59:24;;;;;;;16.30;5.50;;;2.00;99.90;;;;;;5006670;28;20396;-84
2023/12/01 10:01:53;;;;;;;23.77;6.20;;;2.10;99.90;;;;;;5013488;28;20300;-82
2023/12/01 10:04:19;;;;;;;16.88;5.38;;;2.10;99.90;;;;;;5012364;28;20483;-84
2023/12/01 10:06:45;;;;;;;24.55;6.25;;;2.00;99.90;;;;;;5013903;28;20476;-84
2023/12/01 10:09:12;;;;;;;24.17;6.15;;;1.90;99.90;;;;;;5011319;28;20029;-85
2023/12/01 10:11:38;;;;;;;20.20;5.93;;;1.80;99.90;;;;;;5009292;28;20022;-86
2023/12/01 10:14:07;;;;;;;19.63;5.35;;;1.70;99.90;;;;;;5011810;28;20038;-86
2023/12/01 10:16:36;;;;;;;17.35;5.47;;;1.70;99.90;;;;;;5013896;28;20025;-86
2023/12/01 10:19:06;;;;;;;18.95;5.05;;;1.80;99.90;;;;;;5013853;28;20606;-85
2023/12/01 10:21:46;;;;;;;13.27;5.80;;;1.90;99.90;;;;;;5012427;28;20092;-85
2023/12/01 10:24:16;;;;;;;19.20;5.38;;;1.70;99.90;;;;;;5013449;28;20079;-84
2023/12/01 10:26:44;;;;;;;12.05;4.57;;;1.80;99.90;;;;;;4997589;28;20555;-85
2023/12/01 10:29:47;;;;;;;19.13;5.53;;;2.00;99.90;;;;;;5012488;28;20480;-83
2023/12/01 10:32:19;;;;;;;14.10;5.63;;;2.00;99.90;;;;;;4981488;28;20099;-84
2023/12/01 10:34:54;;;;;;;23.75;6.50;;;2.10;99.90;;;;;;5000132;28;20044;-83
2023/12/01 10:37:21;;;;;;;19.35;5.85;;;2.20;99.90;;;;;;5012967;28;20361;-85
2023/12/01 10:39:51;;;;;;;15.68;4.55;;;2.10;99.90;;;;;;5012120;28;20022;-84
2023/12/01 10:42:18;;;;;;;16.58;5.57;;;2.20;99.90;;;;;;5012249;28;20392;-85
2023/12/01 10:44:47;;;;;;;17.48;4.90;;;2.30;99.90;;;;;;5011910;28;20476;-84
2023/12/01 10:47:16;;;;;;;16.13;5.32;;;2.50;99.90;;;;;;5011295;28;20451;-85
2023/12/01 10:49:43;;;;;;;;;;;2.60;99.90;;;;;;5013129;28;20026;-84
2023/12/01 10:52:12;;;;;;;19.67;5.18;;;2.60;99.90;;;;;;5011973;28;19936;-84
2023/12/01 10:54:42;;;;;;;17.48;5.40;;;2.60;99.90;;;;;;5011638;28;20025;-85
2023/12/01 10:57:14;;;;;;;16.55;5.38;;;2.70;99.90;;;;;;5013403;28;20487;-84
2023/12/01 10:59:45;;;;;;;16.90;5.60;;;2.70;99.90;;;;;;5011772;28;20026;-83
2023/12/01 11:02:14;;;;;;;21.83;6.53;;;2.80;99.90;;;;;;5000275;28;20029;-86
2023/12/01 11:04:44;;;;;;;18.40;5.95;;;2.80;99.90;;;;;;5011897;28;20037;-84
2023/12/01 11:07:46;;;;;;;17.77;6.10;;;2.90;99.90;;;;;;5012670;28;20495;-85
2023/12/01 11:10:21;;;;;;;21.20;6.95;;;2.90;99.90;;;;;;5012765;28;20045;-84
2023/12/01 11:13:25;;;;;;;17.58;6.60;;;2.80;99.90;;;;;;5011062;28;20396;-85
2023/12/01 11:15:53;;;;;;;19.52;5.93;;;2.80;99.90;;;;;;5006684;28;20415;-83
2023/12/01 11:18:20;;;;;;;16.95;6.90;;;2.70;99.90;;;;;;5011114;28;20029;-83
2023/12/01 11:20:48;;;;;;;18.75;5.72;;;2.60;99.90;;;;;;5013734;28;20141;-82
2023/12/01 11:23:19;;;;;;;18.67;6.53;;;2.50;99.90;;;;;;5013285;28;20416;-81
2023/12/01 11:25:53;;;;;;;25.00;7.22;;;2.40;99.90;;;;;;5016206;28;20045;-81
2023/12/01 11:31:13;;;;;;;23.17;6.32;;;2.20;99.90;;;;;;5016443;28;20490;-82
2023/12/01 11:33:40;;;;;;;27.55;6.65;;;2.20;99.90;;;;;;5015308;28;20128;-83
2023/12/01 11:36:32;;;;;;;12.18;4.97;;;2.20;99.90;;;;;;5016557;28;20026;-82
2023/12/01 11:39:27;;;;;;;22.67;6.43;;;2.20;99.90;;;;;;5013917;28;20022;-82
2023/12/01 11:41:55;;;;;;;14.00;4.93;;;2.20;99.90;;;;;;5010148;28;20377;-83
2023/12/01 11:44:34;;;;;;;13.70;4.90;;;2.20;99.90;;;;;;5015223;28;20464;-83
2023/12/01 11:47:02;;;;;;;20.25;5.70;;;2.20;99.90;;;;;;5015036;28;20113;-84
2023/12/01 11:49:32;;;;;;;;;;;2.20;99.90;;;;;;5016297;28;20480;-83
2023/12/01 11:51:58;;;;;;;10.07;4.30;;;2.20;99.90;;;;;;5016008;28;19909;-82
2023/12/01 11:54:24;;;;;;;14.13;6.15;;;2.30;99.90;;;;;;5014621;28;20427;-83
2023/12/01 11:56:52;;;;;;;13.02;4.88;;;2.30;99.90;;;;;;5014026;28;20022;-83
2023/12/01 11:59:19;;;;;;;11.35;4.43;;;2.20;99.90;;;;;;5011239;28;20038;-82
2023/12/01 12:01:45;;;;;;;19.33;5.90;;;2.20;99.90;;;;;;5014257;28;20034;-83
2023/12/01 12:04:16;;;;;;;16.73;4.97;;;2.20;99.90;;;;;;5015107;28;20034;-82
2023/12/01 12:06:43;;;;;;;20.60;5.35;;;2.20;99.90;;;;;;5013461;28;20484;-83
2023/12/01 12:09:10;;;;;;;15.10;4.38;;;2.40;99.90;;;;;;5011071;28;20032;-82
2023/12/01 12:11:36;;;;;;;17.63;5.00;;;2.30;99.90;;;;;;5015807;28;20034;-81
2023/12/01 12:14:04;;;;;;;16.27;5.50;;;2.20;99.90;;;;;;5011357;28;20044;-82
2023/12/01 12:16:30;;;;;;;16.50;5.57;;;2.20;99.90;;;;;;5015326;28;20029;-83
2023/12/01 12:19:00;;;;;;;11.93;3.85;;;2.30;99.90;;;;;;5014942;28;20041;-82
2023/12/01 12:21:29;;;;;;;19.48;4.45;;;2.40;99.90;;;;;;5015372;28;20092;-81
2023/12/01 12:23:55;;;;;;;13.88;4.30;;;2.20;99.90;;;;;;5014414;28;20500;-82
2023/12/01 12:26:26;;;;;;;13.82;4.72;;;2.00;99.90;;;;;;5013990;28;20064;-82
2023/12/01 12:28:56;;;;;;;14.00;4.43;;;1.90;99.90;;;;;;5015518;28;20046;-81
2023/12/01 12:31:25;;;;;;;13.40;4.78;;;1.90;99.90;;;;;;5013588;28;20369;-83
2023/12/01 12:33:57;;;;;;;10.45;3.90;;;2.00;99.90;;;;;;5014222;28;20481;-82
2023/12/01 12:36:28;;;;;;;14.27;4.55;;;2.20;99.90;;;;;;5014380;28;20022;-82
2023/12/01 12:38:58;;;;;;;13.68;4.85;;;2.30;99.90;;;;;;5014266;28;20022;-83
2023/12/01 12:41:28;;;;;;;16.08;4.78;;;2.20;99.90;;;;;;5014840;28;20021;-81
2023/12/01 12:43:56;;;;;;;11.05;4.68;;;2.20;99.90;;;;;;5012565;28;20412;-81
2023/12/01 12:46:23;;;;;;;18.23;4.47;;;2.00;99.90;;;;;;5013646;28;20080;-81
2023/12/01 12:48:50;;;;;;;16.10;4.90;;;2.10;99.90;;;;;;5013976;28;20057;-82
2023/12/01 12:51:17;;;;;;;11.65;3.70;;;2.20;99.90;;;;;;5015585;28;20373;-83
2023/12/01 12:53:46;;;;;;;7.80;2.90;;;2.30;99.90;;;;;;5014117;28;20026;-82